createdAt,value
2023-05-05T00:00:59.573Z,955.8311157
2023-05-05T00:02:01.180Z,955.810791
2023-05-05T00:03:01.793Z,955.7974854
2023-05-05T00:04:02.865Z,955.7793579
2023-05-05T00:05:04.353Z,955.793457
2023-05-05T00:06:05.814Z,955.7457886
2023-05-05T00:07:07.223Z,955.7554932
2023-05-05T00:08:08.556Z,955.7299805
2023-05-05T00:09:09.096Z,955.7684326
2023-05-05T00:10:10.596Z,955.7489624
2023-05-05T00:11:12.083Z,955.6930542
2023-05-05T00:12:43.564Z,955.7160645
2023-05-05T00:13:45.084Z,955.7265625
2023-05-05T00:14:46.635Z,955.7059937
2023-05-05T00:15:47.851Z,955.6789551
2023-05-05T00:16:49.480Z,955.720459
2023-05-05T00:17:50.381Z,955.7081299
2023-05-05T00:18:51.797Z,955.6818848
2023-05-05T00:19:52.822Z,955.6865845
2023-05-05T00:20:54.848Z,955.6956177
2023-05-05T00:21:56.658Z,955.6776733
2023-05-05T00:22:57.579Z,955.6818237
2023-05-05T00:23:58.567Z,955.7379761
2023-05-05T00:24:59.573Z,955.6956177
2023-05-05T00:26:00.531Z,955.7034302
2023-05-05T00:27:01.029Z,955.7075806
2023-05-05T00:28:01.482Z,955.7321777
2023-05-05T00:29:03.609Z,955.7296753
2023-05-05T00:30:04.126Z,955.751709
2023-05-05T00:31:05.343Z,955.7542725
2023-05-05T00:32:06.614Z,955.7583008
2023-05-05T00:33:07.090Z,955.7402954
2023-05-05T00:34:08.048Z,955.7999878
2023-05-05T00:35:08.581Z,955.7449951
2023-05-05T00:36:09.835Z,955.748291
2023-05-05T00:37:11.437Z,955.7008057
2023-05-05T00:38:43.113Z,955.7025146
2023-05-05T00:39:43.888Z,955.7434082
2023-05-05T00:40:45.301Z,955.7368774
2023-05-05T00:41:46.348Z,955.7410889
2023-05-05T00:42:47.375Z,955.7293701
2023-05-05T00:43:48.358Z,955.7457886
2023-05-05T00:44:49.829Z,955.717041
2023-05-05T00:45:51.315Z,955.7432861
2023-05-05T00:46:52.672Z,955.7285767
2023-05-05T00:47:53.234Z,955.7382202
2023-05-05T00:48:54.369Z,955.7277832
2023-05-05T00:49:55.804Z,955.744751
2023-05-05T00:50:56.807Z,955.7324219
2023-05-05T00:51:57.452Z,955.757019
2023-05-05T00:52:57.975Z,955.7800293
2023-05-05T00:53:58.425Z,955.741394
2023-05-05T00:54:59.906Z,955.789856
2023-05-05T00:56:01.294Z,955.7873535
2023-05-05T00:57:02.495Z,955.7208862
2023-05-05T00:58:03.958Z,955.699585
2023-05-05T00:59:05.428Z,955.7421875
2023-05-05T01:00:06.870Z,955.7251587
2023-05-05T01:01:07.730Z,955.7087402
2023-05-05T01:02:08.120Z,955.6832275
2023-05-05T01:03:09.415Z,955.6514282
2023-05-05T01:04:10.323Z,955.6832886
2023-05-05T01:05:11.776Z,955.6898193
2023-05-05T01:06:43.278Z,955.6096802
2023-05-05T01:07:44.158Z,955.6217041
2023-05-05T01:08:45.439Z,955.6086426
2023-05-05T01:09:46.816Z,955.5588989
2023-05-05T01:10:47.879Z,955.5710449
2023-05-05T01:11:49.300Z,955.5834351
2023-05-05T01:12:50.632Z,955.5792236
2023-05-05T01:13:51.157Z,955.5644531
2023-05-05T01:14:52.349Z,955.527832
2023-05-05T01:15:53.694Z,955.5114136
2023-05-05T01:16:55.081Z,955.5073242
2023-05-05T01:17:56.665Z,955.484375
2023-05-05T01:18:57.318Z,955.4918823
2023-05-05T01:19:58.299Z,955.4785767
2023-05-05T01:20:59.644Z,955.4891357
2023-05-05T01:22:00.194Z,955.456543
2023-05-05T01:23:01.351Z,955.3989868
2023-05-05T01:24:03.063Z,955.4490356
2023-05-05T01:25:04.582Z,955.4382935
2023-05-05T01:26:06.092Z,955.4613037
2023-05-05T01:27:06.557Z,955.4539185
2023-05-05T01:28:07.813Z,955.463623
2023-05-05T01:29:08.868Z,955.4848633
2023-05-05T01:30:10.216Z,955.4793701
2023-05-05T01:31:11.162Z,955.4276733
2023-05-05T01:32:42.896Z,955.4816895
2023-05-05T01:33:43.491Z,955.5315552
2023-05-05T01:34:44.079Z,955.5323486
2023-05-05T01:35:45.359Z,955.520752
2023-05-05T01:36:46.955Z,955.5722656
2023-05-05T01:37:48.063Z,955.527832
2023-05-05T01:38:48.582Z,955.5770264
2023-05-05T01:39:49.831Z,955.583374
2023-05-05T01:40:51.080Z,955.5480957
2023-05-05T01:41:51.661Z,955.5204468
2023-05-05T01:42:52.831Z,955.5006104
2023-05-05T01:43:53.889Z,955.5020142
2023-05-05T01:44:55.467Z,955.4896851
2023-05-05T01:45:56.858Z,955.475708
2023-05-05T01:46:58.064Z,955.4620361
2023-05-05T01:47:58.616Z,955.4871826
2023-05-05T01:48:59.848Z,955.5314331
2023-05-05T01:50:01.105Z,955.520874
2023-05-05T01:51:02.570Z,955.4946899
2023-05-05T01:52:03.325Z,955.4880981
2023-05-05T01:53:04.614Z,955.5095215
2023-05-05T01:54:06.077Z,955.4614258
2023-05-05T01:55:07.168Z,955.4613037
2023-05-05T01:56:08.087Z,955.5021973
2023-05-05T01:57:08.634Z,955.4907837
2023-05-05T01:58:09.885Z,955.453125
2023-05-05T01:59:11.110Z,955.46875
2023-05-05T02:00:42.347Z,955.4400024
2023-05-05T02:01:43.729Z,955.4279175
2023-05-05T02:02:45.200Z,955.4310913
2023-05-05T02:03:46.152Z,955.4631348
2023-05-05T02:04:47.443Z,955.49646
2023-05-05T02:05:48.849Z,955.4728394
2023-05-05T02:06:49.984Z,955.4564819
2023-05-05T02:07:51.106Z,955.4714966
2023-05-05T02:08:52.628Z,955.5130615
2023-05-05T02:09:53.354Z,955.4992676
2023-05-05T02:10:54.872Z,955.5032959
2023-05-05T02:11:56.389Z,955.4916992
2023-05-05T02:12:57.665Z,955.4950562
2023-05-05T02:13:59.123Z,955.5252075
2023-05-05T02:14:59.555Z,955.515625
2023-05-05T02:16:00.988Z,955.5310059
2023-05-05T02:17:02.123Z,955.5565796
2023-05-05T02:18:02.652Z,955.5834351
2023-05-05T02:19:03.935Z,955.6073608
2023-05-05T02:20:05.249Z,955.6112671
2023-05-05T02:21:06.707Z,955.6063843
2023-05-05T02:22:07.123Z,955.6112671
2023-05-05T02:23:08.396Z,955.5893555
2023-05-05T02:24:09.837Z,955.5759277
2023-05-05T02:25:11.574Z,955.5965576
2023-05-05T02:26:43.939Z,955.5914307
2023-05-05T02:27:45.102Z,955.5728149
2023-05-05T02:28:46.623Z,955.5653076
2023-05-05T02:29:47.280Z,955.5865479
2023-05-05T02:30:48.389Z,955.6127319
2023-05-05T02:31:50.080Z,955.5595093
2023-05-05T02:32:51.082Z,955.538269
2023-05-05T02:33:51.700Z,955.5343628
2023-05-05T02:34:52.800Z,955.5251465
2023-05-05T02:35:53.922Z,955.5596313
2023-05-05T02:36:55.357Z,955.5593872
2023-05-05T02:37:56.962Z,955.5634155
2023-05-05T02:38:58.104Z,955.5496826
2023-05-05T02:39:58.689Z,955.5239868
2023-05-05T02:41:00.111Z,955.5953369
2023-05-05T02:42:01.483Z,955.5577393
2023-05-05T02:43:02.608Z,955.5462646
2023-05-05T02:44:04.093Z,955.5181885
2023-05-05T02:45:05.104Z,955.515625
2023-05-05T02:46:06.725Z,955.5304565
2023-05-05T02:47:08.227Z,955.4846802
2023-05-05T02:48:09.655Z,955.4812012
2023-05-05T02:49:10.561Z,955.4902954
2023-05-05T02:50:43.075Z,955.4866943
2023-05-05T02:51:44.748Z,955.487793
2023-05-05T02:52:46.157Z,955.5054932
2023-05-05T02:53:47.596Z,955.4865723
2023-05-05T02:54:48.226Z,955.5004883
2023-05-05T02:55:49.581Z,955.5282593
2023-05-05T02:56:50.139Z,955.5031128
2023-05-05T02:57:51.599Z,955.4865723
2023-05-05T02:58:52.224Z,955.5421753
2023-05-05T02:59:53.621Z,955.50177
2023-05-05T03:00:54.908Z,955.5339355
2023-05-05T03:01:56.464Z,955.505127
2023-05-05T03:02:57.824Z,955.4926758
2023-05-05T03:03:59.167Z,955.4746704
2023-05-05T03:04:59.741Z,955.5023193
2023-05-05T03:06:00.908Z,955.4620972
2023-05-05T03:07:02.378Z,955.4923706
2023-05-05T03:08:03.617Z,955.3861084
2023-05-05T03:09:05.129Z,955.4120483
2023-05-05T03:10:06.035Z,955.4104614
2023-05-05T03:11:06.887Z,955.4759521
2023-05-05T03:12:08.344Z,955.4562378
2023-05-05T03:13:11.220Z,955.3948364
2023-05-05T03:14:41.931Z,955.3817139
2023-05-05T03:15:43.744Z,955.3612671
2023-05-05T03:16:44.918Z,955.3782959
2023-05-05T03:17:46.080Z,955.335022
2023-05-05T03:18:47.182Z,955.2974854
2023-05-05T03:19:47.661Z,955.303772
2023-05-05T03:20:49.116Z,955.331543
2023-05-05T03:21:50.613Z,955.3414307
2023-05-05T03:22:51.610Z,955.3127441
2023-05-05T03:23:53.163Z,955.2809448
2023-05-05T03:24:54.688Z,955.357605
2023-05-05T03:25:55.376Z,955.3308105
2023-05-05T03:26:56.880Z,955.3233032
2023-05-05T03:27:57.482Z,955.3118896
2023-05-05T03:28:59.625Z,955.3544312
2023-05-05T03:30:00.180Z,955.3590698
2023-05-05T03:31:00.651Z,955.3410645
2023-05-05T03:32:02.162Z,955.2698364
2023-05-05T03:33:02.594Z,955.312439
2023-05-05T03:34:03.753Z,955.3242798
2023-05-05T03:35:04.201Z,955.3364258
2023-05-05T03:36:05.383Z,955.3357544
2023-05-05T03:37:06.861Z,955.3186035
2023-05-05T03:38:08.407Z,955.2970581
2023-05-05T03:39:09.720Z,955.317627
2023-05-05T03:40:44.506Z,955.2987671
2023-05-05T03:41:42.110Z,955.3190918
2023-05-05T03:42:42.621Z,955.3109131
2023-05-05T03:43:43.851Z,955.302002
2023-05-05T03:44:45.108Z,955.3230591
2023-05-05T03:45:46.612Z,955.2871094
2023-05-05T03:46:47.604Z,955.2854614
2023-05-05T03:47:48.161Z,955.3084106
2023-05-05T03:48:49.390Z,955.2807007
2023-05-05T03:49:50.582Z,955.282959
2023-05-05T03:50:51.772Z,955.3016968
2023-05-05T03:51:53.105Z,955.3049927
2023-05-05T03:52:54.403Z,955.324707
2023-05-05T03:53:55.578Z,955.3096924
2023-05-05T03:54:56.681Z,955.295105
2023-05-05T03:55:57.227Z,955.2941895
2023-05-05T03:56:58.432Z,955.2867432
2023-05-05T03:57:59.850Z,955.2824707
2023-05-05T03:59:00.312Z,955.31427
2023-05-05T04:00:01.580Z,955.305481
2023-05-05T04:01:02.183Z,955.3071289
2023-05-05T04:02:04.178Z,955.3208008
2023-05-05T04:03:05.764Z,955.3616943
2023-05-05T04:04:07.139Z,955.3487549
2023-05-05T04:05:08.607Z,955.3169556
2023-05-05T04:06:09.113Z,955.3363037
2023-05-05T04:07:40.703Z,955.3331299
2023-05-05T04:08:41.926Z,955.3076782
2023-05-05T04:09:43.703Z,955.3093872
2023-05-05T04:10:45.100Z,955.2937012
2023-05-05T04:11:46.694Z,955.2648926
2023-05-05T04:12:47.160Z,955.3058472
2023-05-05T04:13:48.453Z,955.2814331
2023-05-05T04:14:49.863Z,955.2960205
2023-05-05T04:15:51.188Z,955.3074341
2023-05-05T04:16:51.637Z,955.2692261
2023-05-05T04:17:52.973Z,955.286499
2023-05-05T04:18:53.456Z,955.2920532
2023-05-05T04:19:54.674Z,955.2651367
2023-05-05T04:20:56.089Z,955.2559204
2023-05-05T04:21:57.174Z,955.2454834
2023-05-05T04:22:57.659Z,955.2331543
2023-05-05T04:23:58.897Z,955.2134399
2023-05-05T04:25:00.205Z,955.241272
2023-05-05T04:26:00.634Z,955.2471924
2023-05-05T04:27:01.092Z,955.2619629
2023-05-05T04:28:01.731Z,955.3043823
2023-05-05T04:29:03.131Z,955.2772827
2023-05-05T04:30:04.609Z,955.3082886
2023-05-05T04:31:05.303Z,955.3018799
2023-05-05T04:32:07.137Z,955.3165894
2023-05-05T04:33:08.654Z,955.3175049
2023-05-05T04:34:40.419Z,955.2845459
2023-05-05T04:35:41.633Z,955.3123169
2023-05-05T04:36:43.114Z,955.2983398
2023-05-05T04:37:43.886Z,955.3654175
2023-05-05T04:38:45.556Z,955.3370361
2023-05-05T04:39:46.885Z,955.3328247
2023-05-05T04:40:48.150Z,955.3214111
2023-05-05T04:41:49.588Z,955.3253174
2023-05-05T04:42:50.869Z,955.3122559
2023-05-05T04:43:52.167Z,955.3309326
2023-05-05T04:44:53.609Z,955.3439331
2023-05-05T04:45:55.267Z,955.3540649
2023-05-05T04:46:55.845Z,955.3492432
2023-05-05T04:47:57.008Z,955.3565674
2023-05-05T04:48:57.930Z,955.3735962
2023-05-05T04:49:59.138Z,955.3688965
2023-05-05T04:50:59.735Z,955.3574219
2023-05-05T04:52:01.113Z,955.3982544
2023-05-05T04:53:02.494Z,955.4247437
2023-05-05T04:54:03.923Z,955.4040527
2023-05-05T04:55:05.163Z,955.4475098
2023-05-05T04:56:06.613Z,955.4223633
2023-05-05T04:57:07.099Z,955.4714355
2023-05-05T04:58:08.462Z,955.5049438
2023-05-05T04:59:39.790Z,955.4787598
2023-05-05T05:00:40.997Z,955.4575195
2023-05-05T05:01:42.196Z,955.5018921
2023-05-05T05:02:43.759Z,955.4970093
2023-05-05T05:03:44.278Z,955.4920044
2023-05-05T05:04:45.342Z,955.4691162
2023-05-05T05:05:46.393Z,955.4935913
2023-05-05T05:06:47.613Z,955.5026855
2023-05-05T05:07:48.140Z,955.4954834
2023-05-05T05:08:49.357Z,955.4921265
2023-05-05T05:09:50.347Z,955.4880981
2023-05-05T05:10:51.394Z,955.4949341
2023-05-05T05:11:52.941Z,955.5031128
2023-05-05T05:12:54.509Z,955.5236206
2023-05-05T05:13:55.647Z,955.5317383
2023-05-05T05:14:56.258Z,955.5237427
2023-05-05T05:15:58.196Z,955.496582
2023-05-05T05:16:58.670Z,955.5599976
2023-05-05T05:17:59.951Z,955.519043
2023-05-05T05:19:01.792Z,955.5215454
2023-05-05T05:20:02.388Z,955.4871826
2023-05-05T05:21:03.670Z,955.5119629
2023-05-05T05:22:05.135Z,955.5204468
2023-05-05T05:23:05.687Z,955.5187378
2023-05-05T05:24:06.946Z,955.543457
2023-05-05T05:25:08.106Z,955.5812378
2023-05-05T05:26:39.942Z,955.5681152
2023-05-05T05:27:41.118Z,955.5706177
2023-05-05T05:28:42.626Z,955.6084595
2023-05-05T05:29:43.081Z,955.6149902
2023-05-05T05:30:44.360Z,955.5805664
2023-05-05T05:31:45.368Z,955.5864258
2023-05-05T05:32:46.554Z,955.5784302
2023-05-05T05:33:47.965Z,955.6149902
2023-05-05T05:34:49.448Z,955.6159668
2023-05-05T05:35:50.372Z,955.6112671
2023-05-05T05:36:51.606Z,955.6185303
2023-05-05T05:37:53.136Z,955.6570435
2023-05-05T05:38:53.622Z,955.6135864
2023-05-05T05:39:54.931Z,955.600769
2023-05-05T05:40:56.463Z,955.6553345
2023-05-05T05:41:57.860Z,955.6637573
2023-05-05T05:42:59.651Z,955.6679688
2023-05-05T05:44:00.171Z,955.6865845
2023-05-05T05:45:01.413Z,955.65802
2023-05-05T05:46:02.675Z,955.6876831
2023-05-05T05:47:03.660Z,955.6882935
2023-05-05T05:48:04.178Z,955.6932983
2023-05-05T05:49:05.376Z,955.7089233
2023-05-05T05:50:06.068Z,955.706543
2023-05-05T05:51:07.108Z,955.6990356
2023-05-05T05:52:07.620Z,955.7128906
2023-05-05T05:53:39.218Z,955.703064
2023-05-05T05:54:40.400Z,955.7017212
2023-05-05T05:55:41.916Z,955.6976318
2023-05-05T05:56:42.841Z,955.7122803
2023-05-05T05:57:44.100Z,955.7354736
2023-05-05T05:58:45.637Z,955.6774902
2023-05-05T05:59:46.295Z,955.7247925
2023-05-05T06:00:47.481Z,955.6824341
2023-05-05T06:01:48.921Z,955.7202148
2023-05-05T06:02:50.193Z,955.7040405
2023-05-05T06:03:51.521Z,955.7409668
2023-05-05T06:04:52.991Z,955.7302246
2023-05-05T06:05:54.290Z,955.6885986
2023-05-05T06:06:55.622Z,955.7027588
2023-05-05T06:07:56.635Z,955.7526855
2023-05-05T06:08:57.097Z,955.6989136
2023-05-05T06:09:59.282Z,955.729248
2023-05-05T06:10:59.003Z,955.703125
2023-05-05T06:12:00.313Z,955.7033081
2023-05-05T06:13:01.664Z,955.6976318
2023-05-05T06:14:02.419Z,955.7114868
2023-05-05T06:15:03.951Z,955.7058105
2023-05-05T06:16:05.526Z,955.7002563
2023-05-05T06:17:06.766Z,955.6975708
2023-05-05T06:18:08.149Z,955.7608643
2023-05-05T06:19:38.886Z,955.7584229
2023-05-05T06:20:40.438Z,955.7634888
2023-05-05T06:21:42.158Z,955.7824097
2023-05-05T06:22:43.716Z,955.7521973
2023-05-05T06:23:44.908Z,955.7946777
2023-05-05T06:24:46.332Z,955.7179565
2023-05-05T06:25:47.418Z,955.7399902
2023-05-05T06:26:49.000Z,955.7146606
2023-05-05T06:27:50.118Z,955.7525024
2023-05-05T06:28:51.109Z,955.7279053
2023-05-05T06:29:51.562Z,955.748291
2023-05-05T06:30:52.895Z,955.7780762
2023-05-05T06:31:54.455Z,955.7592773
2023-05-05T06:32:56.705Z,955.7592163
2023-05-05T06:33:57.221Z,955.7626343
2023-05-05T06:34:58.465Z,955.7487793
2023-05-05T06:35:59.877Z,955.7659302
2023-05-05T06:37:01.240Z,955.7711182
2023-05-05T06:38:02.619Z,955.7653809
2023-05-05T06:39:03.131Z,955.7449341
2023-05-05T06:40:03.616Z,955.7235107
2023-05-05T06:41:04.906Z,955.7351685
2023-05-05T06:42:07.188Z,955.7346802
2023-05-05T06:43:38.914Z,955.7512207
2023-05-05T06:44:40.118Z,955.7151489
2023-05-05T06:45:43.622Z,955.756897
2023-05-05T06:46:41.683Z,955.7004395
2023-05-05T06:47:43.065Z,955.7178345
2023-05-05T06:48:44.796Z,955.7055664
2023-05-05T06:49:46.130Z,955.6893921
2023-05-05T06:50:47.114Z,955.6901855
2023-05-05T06:51:47.570Z,955.7154541
2023-05-05T06:52:48.973Z,955.6959229
2023-05-05T06:53:50.596Z,955.6829834
2023-05-05T06:54:52.137Z,955.6461182
2023-05-05T06:55:53.130Z,955.7026367
2023-05-05T06:56:54.121Z,955.6673584
2023-05-05T06:57:55.425Z,955.6101685
2023-05-05T06:58:56.659Z,955.5978394
2023-05-05T06:59:57.525Z,955.6333008
2023-05-05T07:00:58.903Z,955.6359253
2023-05-05T07:01:59.877Z,955.5934448
2023-05-05T07:03:01.405Z,955.6173706
2023-05-05T07:04:02.826Z,955.6268921
2023-05-05T07:05:03.274Z,955.6254883
2023-05-05T07:06:04.633Z,955.617981
2023-05-05T07:07:06.145Z,955.6010132
2023-05-05T07:08:06.593Z,955.5804443
2023-05-05T07:09:38.893Z,955.5608521
2023-05-05T07:10:40.226Z,955.5668945
2023-05-05T07:11:40.766Z,955.539856
2023-05-05T07:12:41.859Z,955.5257568
2023-05-05T07:13:43.013Z,955.5167847
2023-05-05T07:14:44.685Z,955.5365601
2023-05-05T07:15:46.207Z,955.5161133
2023-05-05T07:16:46.797Z,955.5029907
2023-05-05T07:17:48.051Z,955.5054932
2023-05-05T07:18:48.614Z,955.4884644
2023-05-05T07:19:49.642Z,955.5014648
2023-05-05T07:20:50.204Z,955.4745483
2023-05-05T07:21:51.403Z,955.4916992
2023-05-05T07:22:52.619Z,955.512207
2023-05-05T07:23:53.947Z,955.5426636
2023-05-05T07:24:55.257Z,955.4781494
2023-05-05T07:25:56.640Z,955.4373169
2023-05-05T07:26:57.179Z,955.4544678
2023-05-05T07:27:58.353Z,955.4743652
2023-05-05T07:28:59.741Z,955.4766235
2023-05-05T07:30:00.722Z,955.4497681
2023-05-05T07:31:01.302Z,955.5343628
2023-05-05T07:32:02.489Z,955.5170288
2023-05-05T07:33:03.660Z,955.4880981
2023-05-05T07:34:04.655Z,955.5301514
2023-05-05T07:35:05.644Z,955.5089111
2023-05-05T07:36:07.136Z,955.5081177
2023-05-05T07:37:38.063Z,955.5218506
2023-05-05T07:38:39.398Z,955.4946899
2023-05-05T07:39:40.686Z,955.5144653
2023-05-05T07:40:42.304Z,955.4915771
2023-05-05T07:41:43.661Z,955.4971924
2023-05-05T07:42:44.179Z,955.5072021
2023-05-05T07:43:45.365Z,955.4786987
2023-05-05T07:44:46.883Z,955.5062256
2023-05-05T07:45:48.186Z,955.5030518
2023-05-05T07:46:48.695Z,955.496582
2023-05-05T07:47:50.076Z,955.5203247
2023-05-05T07:48:51.425Z,955.5203247
2023-05-05T07:49:52.651Z,955.5293579
2023-05-05T07:50:55.247Z,955.5301514
2023-05-05T07:51:55.712Z,955.496582
2023-05-05T07:53:06.246Z,955.4882813
2023-05-05T07:53:58.454Z,955.4851685
2023-05-05T07:54:58.934Z,955.4840698
2023-05-05T07:56:00.096Z,955.4734497
2023-05-05T07:57:01.426Z,955.4611206
2023-05-05T07:58:02.911Z,955.4595337
2023-05-05T07:59:05.143Z,955.4642944
2023-05-05T08:00:05.665Z,955.4234619
2023-05-05T08:01:06.767Z,955.3931885
2023-05-05T08:02:38.732Z,955.3987427
2023-05-05T08:03:40.240Z,955.4101563
2023-05-05T08:04:41.588Z,955.3756104
2023-05-05T08:05:42.624Z,955.3446655
2023-05-05T08:06:44.312Z,955.3461914
2023-05-05T08:07:44.904Z,955.3093262
2023-05-05T08:08:45.606Z,955.3027954
2023-05-05T08:09:47.070Z,955.2995605
2023-05-05T08:10:48.172Z,955.3265381
2023-05-05T08:11:49.646Z,955.3231201
2023-05-05T08:12:50.340Z,955.3051758
2023-05-05T08:13:51.494Z,955.2944336
2023-05-05T08:14:53.031Z,955.3067017
2023-05-05T08:15:54.693Z,955.3099976
2023-05-05T08:16:55.440Z,955.3032837
2023-05-05T08:17:56.523Z,955.3181152
2023-05-05T08:18:57.952Z,955.2931519
2023-05-05T08:19:59.418Z,955.3218994
2023-05-05T08:21:01.657Z,955.2823486
2023-05-05T08:22:02.220Z,955.2904053
2023-05-05T08:23:02.618Z,955.2963257
2023-05-05T08:24:03.097Z,955.3283081
2023-05-05T08:25:03.590Z,955.3110962
2023-05-05T08:26:05.630Z,955.2979126
2023-05-05T08:27:06.582Z,955.3297119
2023-05-05T08:28:37.979Z,955.312561
2023-05-05T08:29:39.434Z,955.279541
2023-05-05T08:30:40.931Z,955.3041992
2023-05-05T08:31:42.507Z,955.2901611
2023-05-05T08:32:43.681Z,955.2837524
2023-05-05T08:33:44.236Z,955.2548218
2023-05-05T08:34:45.404Z,955.2745361
2023-05-05T08:35:46.439Z,955.260376
2023-05-05T08:36:47.633Z,955.2235718
2023-05-05T08:37:48.972Z,955.2454834
2023-05-05T08:38:50.232Z,955.1849976
2023-05-05T08:39:51.449Z,955.1443481
2023-05-05T08:40:52.063Z,955.1418457
2023-05-05T08:41:52.541Z,955.1074829
2023-05-05T08:42:53.911Z,955.1450195
2023-05-05T08:43:55.098Z,955.1121216
2023-05-05T08:44:58.330Z,955.0691528
2023-05-05T08:45:57.661Z,955.046875
2023-05-05T08:46:59.212Z,955.0477905
2023-05-05T08:47:59.766Z,955.0262451
2023-05-05T08:49:01.186Z,955.0793457
2023-05-05T08:50:02.712Z,955.007019
2023-05-05T08:51:05.687Z,955.0440674
2023-05-05T08:52:05.671Z,955.0134888
2023-05-05T08:53:37.421Z,955.0346069
2023-05-05T08:54:38.469Z,955.0115356
2023-05-05T08:55:39.991Z,955.0106201
2023-05-05T08:56:41.464Z,955.0057983
2023-05-05T08:57:42.685Z,955.0318604
2023-05-05T08:58:44.194Z,955.0089722
2023-05-05T08:59:44.771Z,955.0507813
2023-05-05T09:00:45.990Z,955.0303345
2023-05-05T09:01:47.427Z,954.9901733
2023-05-05T09:02:49.700Z,954.9464722
2023-05-05T09:03:51.017Z,954.9564209
2023-05-05T09:04:52.371Z,954.9603271
2023-05-05T09:05:53.497Z,954.9428711
2023-05-05T09:06:54.692Z,954.9381104
2023-05-05T09:07:56.187Z,954.9034424
2023-05-05T09:08:59.013Z,954.9494019
2023-05-05T09:09:58.679Z,954.9625854
2023-05-05T09:11:00.174Z,954.9559937
2023-05-05T09:12:01.657Z,954.9254761
2023-05-05T09:13:03.221Z,954.9334106
2023-05-05T09:14:03.825Z,954.9154053
2023-05-05T09:15:05.038Z,954.9051514
2023-05-05T09:16:37.514Z,954.8886719
2023-05-05T09:17:39.023Z,954.9403076
2023-05-05T09:18:40.522Z,954.8903198
2023-05-05T09:19:42.199Z,954.880127
2023-05-05T09:20:43.749Z,954.8571777
2023-05-05T09:21:45.047Z,954.8456421
2023-05-05T09:22:45.706Z,954.84198
2023-05-05T09:23:47.266Z,954.8773193
2023-05-05T09:24:48.533Z,954.8259277
2023-05-05T09:25:49.947Z,954.8088379
2023-05-05T09:26:51.620Z,954.769043
2023-05-05T09:27:52.935Z,954.7584229
2023-05-05T09:28:54.576Z,954.7820435
2023-05-05T09:29:55.968Z,954.7489014
2023-05-05T09:30:57.102Z,954.7366943
2023-05-05T09:31:58.489Z,954.7062378
2023-05-05T09:32:59.975Z,954.7387695
2023-05-05T09:34:02.156Z,954.7396851
2023-05-05T09:35:03.899Z,954.7196045
2023-05-05T09:36:04.298Z,954.7427368
2023-05-05T09:37:05.702Z,954.7053223
2023-05-05T09:38:37.531Z,954.7145996
2023-05-05T09:39:38.943Z,954.680542
2023-05-05T09:40:40.482Z,954.6931152
2023-05-05T09:41:41.933Z,954.6936035
2023-05-05T09:42:44.487Z,954.6515503
2023-05-05T09:43:45.920Z,954.6564941
2023-05-05T09:44:47.432Z,954.6431274
2023-05-05T09:45:49.049Z,954.6439209
2023-05-05T09:46:50.216Z,954.623291
2023-05-05T09:47:50.722Z,954.5682983
2023-05-05T09:48:51.979Z,954.5543823
2023-05-05T09:49:53.500Z,954.541748
2023-05-05T09:50:55.031Z,954.4933472
2023-05-05T09:51:56.867Z,954.5046387
2023-05-05T09:52:58.285Z,954.5112305
2023-05-05T09:53:59.076Z,954.4743652
2023-05-05T09:54:59.639Z,954.5250244
2023-05-05T09:56:01.263Z,954.4852295
2023-05-05T09:57:01.686Z,954.5195313
2023-05-05T09:58:03.639Z,954.4651489
2023-05-05T09:59:05.763Z,954.4832153
2023-05-05T10:00:38.689Z,954.4798584
2023-05-05T10:01:40.797Z,954.4759521
2023-05-05T10:02:42.251Z,954.4823608
2023-05-05T10:03:43.749Z,954.4742432
2023-05-05T10:04:45.249Z,954.4398193
2023-05-05T10:05:46.682Z,954.4387207
2023-05-05T10:06:48.020Z,954.4142456
2023-05-05T10:07:49.176Z,954.4068604
2023-05-05T10:08:49.829Z,954.4207764
2023-05-05T10:09:50.986Z,954.4187622
2023-05-05T10:10:52.518Z,954.4071655
2023-05-05T10:11:54.479Z,954.3834229
2023-05-05T10:12:55.820Z,954.3730469
2023-05-05T10:13:56.392Z,954.3746948
2023-05-05T10:14:58.191Z,954.3548584
2023-05-05T10:15:59.717Z,954.3515625
2023-05-05T10:17:01.274Z,954.3027954
2023-05-05T10:18:08.276Z,954.300293
2023-05-05T10:19:03.262Z,954.3214111
2023-05-05T10:20:04.594Z,954.3153076
2023-05-05T10:21:37.024Z,954.3322144
2023-05-05T10:22:38.799Z,954.2974854
2023-05-05T10:23:39.677Z,954.3153076
2023-05-05T10:24:41.222Z,954.3266602
2023-05-05T10:25:41.797Z,954.2932739
2023-05-05T10:26:43.019Z,954.2952271
2023-05-05T10:27:44.637Z,954.2785034
2023-05-05T10:28:45.681Z,954.2453003
2023-05-05T10:29:47.231Z,954.2250977
2023-05-05T10:30:47.811Z,954.1829834
2023-05-05T10:31:48.943Z,954.1815796
2023-05-05T10:32:54.349Z,954.2058105
2023-05-05T10:33:51.465Z,954.2195435
2023-05-05T10:34:52.493Z,954.1615601
2023-05-05T10:35:54.218Z,954.1732178
2023-05-05T10:36:55.621Z,954.2044678
2023-05-05T10:37:56.728Z,954.1638794
2023-05-05T10:38:58.170Z,954.1828003
2023-05-05T10:39:58.687Z,954.2131348
2023-05-05T10:41:00.095Z,954.1535645
2023-05-05T10:42:01.562Z,954.1759644
2023-05-05T10:43:03.735Z,954.1559448
2023-05-05T10:44:04.774Z,954.114502
2023-05-05T10:45:36.866Z,954.1130981
2023-05-05T10:46:38.700Z,954.0840454
2023-05-05T10:47:40.033Z,954.0314331
2023-05-05T10:48:41.599Z,954.0483398
2023-05-05T10:49:42.706Z,954.0275269
2023-05-05T10:50:44.176Z,954.0241699
2023-05-05T10:51:44.853Z,954.0232544
2023-05-05T10:52:45.980Z,954.0231323
2023-05-05T10:53:47.604Z,954.0123291
2023-05-05T10:54:48.699Z,953.9824829
2023-05-05T10:55:49.690Z,953.9625244
2023-05-05T10:56:51.244Z,953.9765015
2023-05-05T10:57:52.686Z,953.9146729
2023-05-05T10:58:59.672Z,953.867981
2023-05-05T10:59:55.846Z,953.8568726
2023-05-05T11:00:56.408Z,953.8964844
2023-05-05T11:01:57.501Z,953.8708496
2023-05-05T11:02:59.172Z,953.8582764
2023-05-05T11:04:00.223Z,953.8303223
2023-05-05T11:05:01.822Z,953.8746948
2023-05-05T11:06:02.384Z,953.8259277
2023-05-05T11:07:03.481Z,953.7629395
2023-05-05T11:08:35.376Z,953.7734985
2023-05-05T11:09:36.578Z,953.789856
2023-05-05T11:10:37.937Z,953.7715454
2023-05-05T11:11:39.663Z,953.7079468
2023-05-05T11:12:41.028Z,953.6937256
2023-05-05T11:13:42.485Z,953.7182617
2023-05-05T11:14:44.007Z,953.6710815
2023-05-05T11:15:45.428Z,953.6303101
2023-05-05T11:16:46.462Z,953.659668